CES554 LFPG-ZSPD
Flight info
| Callsign | CES554 |
|---|---|
| Flight time | N/A |
| Altitude | 31000 |
| Route | LANVI DCT LUPEN/N0473F330 UM164 UTABA DCT INPUL DCT VATET DCT MOPUG/N0466F350 DCT ASNEL DCT UDROS UM859 KARDE UL851 TBN UM11 REBLO M11 LUSAL N199 RASAM L88 NIJAT/N0468F370 L88 METKA B476 TIMGA A480 OTBOR/K0857F370 N147 ELAHA Z621 ARBOL M610 RULAD/K0856S1130 A343 POSOT B215 KABDO/K0854S1190 B215 FKG W188 LIKMI W270 DKO W69 HUR B339 SOTMU/K0861S1220 W98 ELKUR W40 DOXAB/K0859S1190 W40 YQG/K0857S1220 W142 DALIM/K0857S1190 A593 DPX A470 DALNU W166 ZJ W167 SASAN SAS82A |
| Aircraft | A343/H-SDE2E3FGHIJ4J5M1RWXY/LB1D1 |
Departure
| Time | 2026-05-05 20:56 |
|---|---|
| Airport | Charles de Gaulle International Airport (LFPG) |
Arrival
| Time | N/A |
|---|---|
| Airport | Shanghai Pudong International Airport (ZSPD) |
| Time | Latitude | Longitude | Altitude | Speed | Heading |
|---|---|---|---|---|---|
| 2026-05-05 20:21 | 49.00206 | 2.58630 | 358 ft | 0 kts | 262° |
| 2026-05-05 20:38 | 49.00207 | 2.58639 | 358 ft | 4 kts | 262° |
| 2026-05-05 20:38 | 49.00211 | 2.58679 | 345 ft | 4 kts | 258° |
| 2026-05-05 20:38 | 49.00219 | 2.58718 | 366 ft | 4 kts | 240° |
| 2026-05-05 20:39 | 49.00235 | 2.58747 | 362 ft | 4 kts | 204° |
| 2026-05-05 20:39 | 49.00251 | 2.58753 | 364 ft | 0 kts | 175° |
| 2026-05-05 20:44 | 49.00250 | 2.58753 | 364 ft | 1 kts | 175° |
| 2026-05-05 20:44 | 49.00217 | 2.58757 | 365 ft | 8 kts | 175° |
| 2026-05-05 20:44 | 49.00168 | 2.58764 | 358 ft | 7 kts | 175° |
| 2026-05-05 20:45 | 49.00062 | 2.58760 | 362 ft | 13 kts | 192° |
| 2026-05-05 20:45 | 48.99964 | 2.58718 | 367 ft | 16 kts | 216° |
| 2026-05-05 20:45 | 48.99934 | 2.58562 | 358 ft | 16 kts | 265° |
| 2026-05-05 20:46 | 48.99926 | 2.58396 | 363 ft | 15 kts | 266° |
| 2026-05-05 20:46 | 48.99918 | 2.58245 | 364 ft | 14 kts | 266° |
| 2026-05-05 20:46 | 48.99912 | 2.58109 | 363 ft | 12 kts | 266° |
| 2026-05-05 20:46 | 48.99906 | 2.57989 | 358 ft | 11 kts | 266° |
| 2026-05-05 20:47 | 48.99901 | 2.57886 | 366 ft | 9 kts | 266° |
| 2026-05-05 20:47 | 48.99897 | 2.57801 | 358 ft | 7 kts | 265° |
| 2026-05-05 20:47 | 48.99890 | 2.57696 | 361 ft | 12 kts | 264° |
| 2026-05-05 20:47 | 48.99882 | 2.57581 | 359 ft | 10 kts | 264° |
| 2026-05-05 20:48 | 48.99876 | 2.57486 | 364 ft | 8 kts | 265° |
| 2026-05-05 20:48 | 48.99871 | 2.57410 | 365 ft | 6 kts | 265° |
| 2026-05-05 20:48 | 48.99868 | 2.57348 | 363 ft | 6 kts | 265° |
| 2026-05-05 20:48 | 48.99864 | 2.57289 | 360 ft | 5 kts | 265° |
| 2026-05-05 20:49 | 48.99861 | 2.57240 | 365 ft | 4 kts | 265° |
| 2026-05-05 20:49 | 48.99859 | 2.57200 | 366 ft | 3 kts | 265° |
| 2026-05-05 20:49 | 48.99857 | 2.57167 | 361 ft | 3 kts | 265° |
| 2026-05-05 20:49 | 48.99855 | 2.57140 | 359 ft | 2 kts | 265° |
| 2026-05-05 20:50 | 48.99854 | 2.57118 | 361 ft | 2 kts | 265° |
| 2026-05-05 20:50 | 48.99853 | 2.57099 | 362 ft | 2 kts | 265° |
| 2026-05-05 20:50 | 48.99850 | 2.57049 | 363 ft | 7 kts | 265° |
| 2026-05-05 20:50 | 48.99847 | 2.56981 | 364 ft | 6 kts | 265° |
| 2026-05-05 20:51 | 48.99843 | 2.56914 | 366 ft | 6 kts | 265° |
| 2026-05-05 20:51 | 48.99839 | 2.56832 | 358 ft | 11 kts | 265° |
| 2026-05-05 20:51 | 48.99832 | 2.56684 | 358 ft | 17 kts | 265° |
| 2026-05-05 20:51 | 48.99823 | 2.56489 | 358 ft | 18 kts | 266° |
| 2026-05-05 20:52 | 48.99814 | 2.56304 | 364 ft | 17 kts | 266° |
| 2026-05-05 20:52 | 48.99805 | 2.56108 | 362 ft | 21 kts | 266° |
| 2026-05-05 20:52 | 48.99798 | 2.55950 | 364 ft | 7 kts | 266° |
| 2026-05-05 20:52 | 48.99789 | 2.55884 | 362 ft | 6 kts | 253° |
| 2026-05-05 20:53 | 48.99768 | 2.55828 | 367 ft | 10 kts | 225° |
| 2026-05-05 20:53 | 48.99715 | 2.55812 | 361 ft | 1 kts | 174° |
| 2026-05-05 20:53 | 48.99689 | 2.55815 | 363 ft | 6 kts | 175° |
| 2026-05-05 20:53 | 48.99641 | 2.55822 | 359 ft | 9 kts | 175° |
| 2026-05-05 20:54 | 48.99593 | 2.55842 | 364 ft | 2 kts | 120° |
| 2026-05-05 20:54 | 48.99599 | 2.55866 | 366 ft | 4 kts | 73° |
| 2026-05-05 20:54 | 48.99603 | 2.55908 | 360 ft | 4 kts | 83° |
| 2026-05-05 20:54 | 48.99616 | 2.56126 | 365 ft | 45 kts | 85° |
| 2026-05-05 20:55 | 48.99656 | 2.56865 | 364 ft | 94 kts | 85° |
| 2026-05-05 20:55 | 48.99721 | 2.58082 | 363 ft | 135 kts | 85° |
| 2026-05-05 20:55 | 48.99806 | 2.59690 | 368 ft | 167 kts | 79° |
| 2026-05-05 20:55 | 48.99934 | 2.61421 | 840 ft | 162 kts | 78° |
| 2026-05-05 20:56 | 49.00044 | 2.63225 | 1066 ft | 179 kts | 82° |
| 2026-05-05 20:56 | 49.00120 | 2.65160 | 1537 ft | 185 kts | 83° |
| 2026-05-05 20:56 | 49.00198 | 2.67076 | 2179 ft | 180 kts | 82° |
| 2026-05-05 20:56 | 49.00288 | 2.68964 | 2671 ft | 176 kts | 82° |
| 2026-05-05 20:57 | 49.00390 | 2.70828 | 3012 ft | 178 kts | 82° |
| 2026-05-05 20:57 | 49.00494 | 2.72710 | 3310 ft | 179 kts | 83° |
| 2026-05-05 20:57 | 49.00595 | 2.74640 | 3517 ft | 188 kts | 83° |
| 2026-05-05 20:57 | 49.00676 | 2.76691 | 3655 ft | 201 kts | 89° |
| 2026-05-05 20:58 | 49.00549 | 2.78870 | 3832 ft | 213 kts | 95° |
| 2026-05-05 20:58 | 49.00324 | 2.81181 | 3935 ft | 230 kts | 96° |
| 2026-05-05 20:58 | 49.00101 | 2.83675 | 4130 ft | 245 kts | 95° |
| 2026-05-05 20:58 | 48.99877 | 2.86312 | 4375 ft | 258 kts | 97° |
| 2026-05-05 20:59 | 48.99633 | 2.89080 | 4666 ft | 268 kts | 97° |
| 2026-05-05 20:59 | 48.99396 | 2.91938 | 5082 ft | 274 kts | 96° |
| 2026-05-05 20:59 | 48.99153 | 2.94838 | 5571 ft | 277 kts | 97° |
| 2026-05-05 20:59 | 48.98903 | 2.97759 | 6089 ft | 279 kts | 96° |
| 2026-05-05 21:00 | 48.98648 | 3.00708 | 6539 ft | 283 kts | 97° |
| 2026-05-05 21:00 | 48.98393 | 3.03654 | 7012 ft | 286 kts | 97° |
| 2026-05-05 21:00 | 48.98131 | 3.06671 | 7495 ft | 288 kts | 98° |
| 2026-05-05 21:00 | 48.97865 | 3.09709 | 7969 ft | 291 kts | 99° |
| 2026-05-05 21:01 | 48.97594 | 3.12785 | 8425 ft | 295 kts | 99° |
| 2026-05-05 21:01 | 48.97321 | 3.15885 | 8914 ft | 297 kts | 99° |
| 2026-05-05 21:01 | 48.97045 | 3.19012 | 9380 ft | 299 kts | 99° |
| 2026-05-05 21:01 | 48.96766 | 3.22161 | 9838 ft | 302 kts | 99° |
| 2026-05-05 21:02 | 48.96480 | 3.25369 | 10102 ft | 311 kts | 99° |
| 2026-05-05 21:02 | 48.96183 | 3.28684 | 10302 ft | 321 kts | 99° |
| 2026-05-05 21:02 | 48.95876 | 3.32104 | 10501 ft | 331 kts | 99° |
| 2026-05-05 21:02 | 48.95559 | 3.35634 | 10691 ft | 342 kts | 99° |
| 2026-05-05 21:03 | 48.95231 | 3.39273 | 10890 ft | 351 kts | 99° |
| 2026-05-05 21:03 | 48.94893 | 3.42999 | 11074 ft | 360 kts | 99° |
| 2026-05-05 21:03 | 48.94546 | 3.46828 | 11269 ft | 369 kts | 99° |
| 2026-05-05 21:03 | 48.94190 | 3.50735 | 11479 ft | 376 kts | 99° |
| 2026-05-05 21:04 | 48.93827 | 3.54713 | 11725 ft | 383 kts | 99° |
| 2026-05-05 21:04 | 48.93521 | 3.58757 | 12059 ft | 386 kts | 96° |
| 2026-05-05 21:04 | 48.93329 | 3.62845 | 12437 ft | 388 kts | 95° |
| 2026-05-05 21:04 | 48.93140 | 3.66949 | 12811 ft | 390 kts | 96° |